ETEB/QOB METAR and TAF weather

Enter ICAO airport designator
Station Type Date Time Source
ETEB METAR 2021/05/12 01:41 UTC NOAA

ETEB 120141Z AUTO 25008KT 9999 -RA OVC007 11/11 A2984 RMK AO2 SLP115 $


Station Type Date Time Source
ETEB Decoded METAR 2021/05/12 01:41 UTC NOAA

Ansbach / Katterbach, Germany (ETEB) 49-19N 010-38E 476M
May 11, 2021 - 09:41 PM EDT / 2021.05.12 0141 UTC
Wind: from the WSW (250 degrees) at 9 MPH (8 KT):0
Visibility: greater than 7 mile(s):0
Sky conditions: overcast
Weather: light rain
Temperature: 51 F (11 C)
Dew Point: 51 F (11 C)
Relative Humidity: 100%
Pressure (altimeter): 29.84 in. Hg (1010 hPa)
ob: ETEB 120141Z AUTO 25008KT 9999 -RA OVC007 11/11 A2984 RMK AO2 SLP115
cycle: 1

Station Type Date Time Source
ETEB TAF 2021/05/11 18:37 UTC NOAA

TAF
AMD ETEB 111828Z 1118/1223 27009KT 9000 -SHRA BKN015 OVC020 QNH2974INS
TEMPO 1118/1120 BKN010
BECMG 1120/1121 28010G15KT 8000 -RA BKN007 OVC010 QNH2977INS
TEMPO 1123/1206 BKN004 OVC008
BECMG 1211/1212 28009KT 9000 -SHRA FEW015 BKN020 QNH2986INS
BECMG 1220/1221 VRB06KT 9999 NSW SCT015 BKN020 QNH2985INS TX12/1118Z TN09/1203Z LAST NO
AMDS AFT 1122 NEXT 1209

Example: see airport list